Time;durP1;ratioP1;P1;durP2;ratioP2;P2;SDS_P1;SDS_P2;PMS_P1;PMS_P2;Temp;Humidity;BMP_temperature;BMP_pressure;BME280_temperature;BME280_humidity;BME280_pressure;Samples;Min_cycle;Max_cycle;Signal;HPM_P1;HPM_P2
2022/09/18 00:01:24;;;;;;;5.97;0.90;;;;;;;10.11;81.76;98903.69;4955482;28;20774;-59
2022/09/18 00:03:51;;;;;;;4.23;0.70;;;;;;;10.07;81.75;98902.34;4951727;28;20249;-59
2022/09/18 00:06:22;;;;;;;2.60;0.90;;;;;;;10.06;81.73;98900.69;4954891;28;20247;-58
2022/09/18 00:08:51;;;;;;;5.73;0.70;;;;;;;10.06;81.81;98893.69;4947555;28;20231;-59
2022/09/18 00:11:20;;;;;;;4.37;1.13;;;;;;;10.04;82.58;98904.28;4957740;28;20262;-59
2022/09/18 00:13:48;;;;;;;2.17;0.60;;;;;;;10.10;83.77;98902.03;4954642;28;20325;-58
2022/09/18 00:16:17;;;;;;;3.17;0.80;;;;;;;10.06;82.29;98901.50;4957718;28;20708;-59
2022/09/18 00:18:44;;;;;;;6.83;0.90;;;;;;;10.06;83.18;98898.91;4954254;28;20270;-59
2022/09/18 00:21:13;;;;;;;2.83;0.70;;;;;;;10.02;82.49;98894.94;4955864;28;20262;-59
2022/09/18 00:23:41;;;;;;;3.77;0.80;;;;;;;10.06;82.96;98896.28;4953528;28;20733;-58
2022/09/18 00:26:09;;;;;;;6.60;0.87;;;;;;;10.08;83.98;98898.75;4957630;28;20327;-58
2022/09/18 00:28:37;;;;;;;3.47;0.83;;;;;;;10.06;82.66;98896.28;4949799;28;20227;-59
2022/09/18 00:31:05;;;;;;;5.17;0.90;;;;;;;10.07;83.24;98902.34;4945665;28;20229;-57
2022/09/18 00:33:32;;;;;;;4.93;0.87;;;;;;;10.06;81.89;98904.13;4948083;28;20226;-58
2022/09/18 00:36:01;;;;;;;6.37;1.83;;;;;;;10.07;81.70;98889.31;4943950;28;20691;-57
2022/09/18 00:38:30;;;;;;;7.33;0.90;;;;;;;10.07;82.63;98892.72;4953623;28;20254;-58
2022/09/18 00:40:59;;;;;;;6.03;1.30;;;;;;;10.04;81.72;98883.41;4951464;28;20254;-58
2022/09/18 00:43:28;;;;;;;5.60;0.83;;;;;;;10.06;82.52;98885.84;4955622;28;20246;-59
2022/09/18 00:45:59;;;;;;;5.50;1.10;;;;;;;10.07;82.80;98884.09;4952025;28;20229;-58
2022/09/18 00:48:34;;;;;;;4.23;1.00;;;;;;;10.06;80.32;98882.44;4937895;28;20237;-59
2022/09/18 00:51:01;;;;;;;4.53;1.00;;;;;;;10.08;80.86;98888.31;4937395;28;20235;-59
2022/09/18 00:53:28;;;;;;;4.57;1.10;;;;;;;10.08;82.98;98883.09;4941522;28;20245;-58
2022/09/18 00:55:57;;;;;;;3.97;0.93;;;;;;;10.12;81.61;98885.28;4951081;28;20234;-57
2022/09/18 00:58:25;;;;;;;6.43;1.27;;;;;;;10.04;82.26;98878.19;4937094;28;20235;-58
2022/09/18 01:00:54;;;;;;;6.43;0.90;;;;;;;10.02;82.74;98885.34;4951875;28;20229;-58
2022/09/18 01:03:21;;;;;;;3.43;0.83;;;;;;;10.03;81.93;98888.75;4944791;28;20283;-57
2022/09/18 01:06:00;;;;;;;4.40;0.73;;;;;;;10.04;82.87;98878.19;4941111;28;20243;-59
2022/09/18 01:08:36;;;;;;;3.70;0.90;;;;;;;10.03;83.21;98886.97;4954822;28;20325;-58
2022/09/18 01:11:27;;;;;;;5.20;1.10;;;;;;;10.02;83.05;98897.53;4934553;28;20226;-59
2022/09/18 01:14:07;;;;;;;3.53;1.10;;;;;;;9.96;83.28;98885.91;4943214;28;20262;-59
2022/09/18 01:16:40;;;;;;;2.73;1.10;;;;;;;9.96;85.11;98883.28;4952336;28;20259;-58
2022/09/18 01:19:25;;;;;;;4.00;1.00;;;;;;;9.95;86.07;98880.81;4955696;28;20311;-58
2022/09/18 01:22:07;;;;;;;5.50;0.93;;;;;;;9.86;87.27;98890.31;4937999;28;20233;-58
2022/09/18 01:24:58;;;;;;;5.70;1.50;;;;;;;9.83;89.53;98888.78;4952016;28;20236;-59
2022/09/18 01:27:34;;;;;;;5.00;0.90;;;;;;;9.77;90.32;98889.34;4954806;28;20259;-58
2022/09/18 01:30:21;;;;;;;3.93;1.00;;;;;;;9.75;90.02;98883.44;4947544;28;20730;-59
2022/09/18 01:32:54;;;;;;;6.40;1.00;;;;;;;9.69;89.92;98892.66;4953036;28;20230;-59
2022/09/18 01:35:29;;;;;;;4.73;1.30;;;;;;;9.71;91.18;98882.06;4940212;28;20742;-58
2022/09/18 01:38:02;;;;;;;5.90;1.23;;;;;;;9.72;92.28;98881.94;4935902;28;20230;-58
2022/09/18 01:40:34;;;;;;;6.27;0.97;;;;;;;9.73;90.50;98880.16;4940133;28;20261;-58
2022/09/18 01:43:08;;;;;;;6.80;1.23;;;;;;;9.74;92.12;98884.41;4936124;28;20262;-58
2022/09/18 01:45:43;;;;;;;7.47;1.20;;;;;;;9.66;89.47;98886.88;4935583;28;20229;-58
2022/09/18 01:48:18;;;;;;;2.70;0.97;;;;;;;9.66;89.20;98884.25;4954107;28;20609;-59
2022/09/18 01:50:51;;;;;;;6.03;1.10;;;;;;;9.65;89.59;98880.84;4952158;28;20786;-58
2022/09/18 01:53:23;;;;;;;7.23;1.00;;;;;;;9.69;88.66;98882.22;4954560;28;20582;-58
2022/09/18 01:55:56;;;;;;;2.20;0.83;;;;;;;9.63;90.11;98881.94;4936835;28;20766;-58
2022/09/18 01:58:26;;;;;;;4.70;1.03;;;;;;;9.63;89.69;98879.31;4937076;28;20232;-58
2022/09/18 02:00:58;;;;;;;5.33;0.93;;;;;;;9.62;90.62;98881.13;4943453;28;20234;-59
2022/09/18 02:03:29;;;;;;;3.17;1.23;;;;;;;9.59;91.10;98884.81;4945452;28;20232;-59
2022/09/18 02:06:01;;;;;;;9.23;1.10;;;;;;;9.59;91.81;98881.41;4935953;28;20703;-58
2022/09/18 02:08:31;;;;;;;2.60;1.33;;;;;;;9.56;90.60;98879.06;4945382;28;20281;-59
2022/09/18 02:11:03;;;;;;;5.40;1.23;;;;;;;9.54;90.88;98871.38;4952668;28;20241;-58
2022/09/18 02:13:35;;;;;;;6.87;1.30;;;;;;;9.56;91.34;98874.66;4944115;28;20226;-58
2022/09/18 02:16:12;;;;;;;3.67;0.97;;;;;;;9.59;90.77;98871.78;4941554;28;20314;-58
2022/09/18 02:18:42;;;;;;;7.00;2.00;;;;;;;9.59;89.33;98874.41;4941850;28;20402;-59
2022/09/18 02:21:13;;;;;;;6.03;1.20;;;;;;;9.54;90.07;98870.56;4954078;28;20701;-58
2022/09/18 02:23:43;;;;;;;5.37;1.20;;;;;;;9.59;91.28;98870.97;4951535;28;20232;-59
2022/09/18 02:26:14;;;;;;;3.80;1.27;;;;;;;9.63;92.11;98868.91;4951972;28;20297;-58
2022/09/18 02:28:43;;;;;;;4.60;1.20;;;;;;;9.63;92.25;98869.75;4950971;28;20239;-58
2022/09/18 02:31:12;;;;;;;4.13;0.97;;;;;;;9.60;89.64;98877.84;4950547;28;20285;-57
2022/09/18 02:33:39;;;;;;;5.90;1.00;;;;;;;9.60;90.62;98865.63;4945751;28;20627;-58
2022/09/18 02:36:30;;;;;;;6.00;1.10;;;;;;;9.62;91.58;98864.66;4934539;28;20234;-59
2022/09/18 02:39:09;;;;;;;6.20;1.03;;;;;;;9.58;89.37;98871.94;4936366;28;20457;-58
2022/09/18 02:41:43;;;;;;;3.13;0.97;;;;;;;9.63;89.73;98872.34;4930319;28;20699;-59
2022/09/18 02:44:19;;;;;;;3.40;1.10;;;;;;;9.62;91.41;98877.69;4944429;28;20223;-58
2022/09/18 02:47:00;;;;;;;4.97;0.90;;;;;;;9.62;89.82;98873.31;4934123;28;20230;-58
2022/09/18 02:49:57;;;;;;;4.87;1.40;;;;;;;9.59;89.04;98879.59;4948460;28;20238;-57
2022/09/18 02:52:27;;;;;;;3.33;1.57;;;;;;;9.64;91.00;98868.78;4955529;28;20241;-58
2022/09/18 02:55:02;;;;;;;7.23;1.30;;;;;;;9.62;89.59;98872.47;4935252;28;20238;-58
2022/09/18 02:57:33;;;;;;;5.50;1.20;;;;;;;9.65;90.58;98861.78;4936988;28;20290;-58
2022/09/18 03:00:03;;;;;;;6.57;0.97;;;;;;;9.70;91.25;98862.19;4952055;28;20332;-59
2022/09/18 03:05:14;;;;;;;3.77;1.20;;;;;;;9.70;88.39;98865.63;5125339;23;20257;-59
2022/09/18 03:07:54;;;;;;;4.37;1.07;;;;;;;9.65;89.63;98857.41;4970076;28;20238;-59
2022/09/18 03:10:21;;;;;;;5.87;1.47;;;;;;;9.71;88.82;98859.44;4967802;28;20285;-58
2022/09/18 03:12:48;;;;;;;5.90;0.90;;;;;;;9.71;89.93;98846.41;4972092;28;20226;-58
2022/09/18 03:15:16;;;;;;;4.47;1.03;;;;;;;9.68;90.29;98843.25;4966904;28;20233;-59
2022/09/18 03:17:42;;;;;;;4.57;1.00;;;;;;;9.68;90.41;98843.25;4938304;28;20214;-57
2022/09/18 03:20:09;;;;;;;4.53;1.10;;;;;;;9.71;90.32;98840.38;4967247;28;20234;-59
2022/09/18 03:22:37;;;;;;;5.60;1.30;;;;;;;9.71;91.33;98849.03;4946504;28;20228;-58
2022/09/18 03:25:05;;;;;;;5.10;1.23;;;;;;;9.70;91.13;98846.53;4950066;28;20229;-58
2022/09/18 03:27:33;;;;;;;4.37;1.00;;;;;;;9.70;89.48;98849.97;4963205;28;20226;-58
2022/09/18 03:30:00;;;;;;;8.23;1.40;;;;;;;9.72;88.46;98845.44;4951777;28;20230;-59
2022/09/18 03:32:31;;;;;;;4.37;1.10;;;;;;;9.72;89.10;98844.63;4938615;28;20225;-58
2022/09/18 03:34:58;;;;;;;4.60;1.30;;;;;;;9.73;89.44;98846.25;4947832;28;20238;-59
2022/09/18 03:37:27;;;;;;;6.00;1.30;;;;;;;9.77;90.69;98844.22;4951353;28;20228;-58
2022/09/18 03:39:55;;;;;;;3.07;1.10;;;;;;;9.78;88.45;98846.66;4947906;28;20240;-58
2022/09/18 03:42:22;;;;;;;5.33;1.10;;;;;;;9.78;87.57;98846.66;4952461;28;20651;-59
2022/09/18 03:44:50;;;;;;;6.50;1.43;;;;;;;9.83;87.29;98849.66;4946999;28;20230;-58
2022/09/18 03:47:25;;;;;;;7.83;1.30;;;;;;;9.82;88.85;98853.25;4966278;28;20400;-57
2022/09/18 03:49:52;;;;;;;6.40;1.57;;;;;;;9.83;88.30;98841.84;4948171;28;21228;-58
2022/09/18 03:52:20;;;;;;;7.17;1.30;;;;;;;9.81;88.75;98851.59;4951459;28;20722;-58
2022/09/18 03:55:04;;;;;;;5.23;1.20;;;;;;;9.82;87.46;98849.81;4948305;28;20233;-58
2022/09/18 03:57:53;;;;;;;3.83;1.10;;;;;;;9.81;87.41;98854.19;4962514;28;20334;-58
2022/09/18 04:00:40;;;;;;;7.53;1.37;;;;;;;9.82;87.30;98855.03;4946830;28;20257;-58
2022/09/18 04:03:14;;;;;;;2.67;1.00;;;;;;;9.80;86.60;98856.97;4949538;28;20227;-58
2022/09/18 04:06:16;;;;;;;3.90;1.30;;;;;;;9.83;89.16;98859.28;4946244;28;20221;-58
2022/09/18 04:09:09;;;;;;;5.20;1.40;;;;;;;9.80;88.66;98865.59;4927937;28;20315;-58
2022/09/18 04:11:44;;;;;;;3.97;1.53;;;;;;;9.81;88.72;98871.66;4947056;28;20313;-58
2022/09/18 04:14:12;;;;;;;4.30;1.13;;;;;;;9.83;87.93;98869.72;4939112;28;20312;-59
2022/09/18 04:16:39;;;;;;;7.53;1.20;;;;;;;9.85;87.37;98871.22;4948720;28;20284;-59
2022/09/18 04:19:08;;;;;;;8.93;1.37;;;;;;;9.82;86.62;98865.47;4950335;28;20582;-58
2022/09/18 04:21:34;;;;;;;6.27;1.40;;;;;;;9.84;88.01;98861.75;4950287;28;20227;-58
2022/09/18 04:24:01;;;;;;;5.97;1.30;;;;;;;9.85;87.34;98865.19;4949892;28;20239;-58
2022/09/18 04:26:29;;;;;;;4.23;1.30;;;;;;;9.84;86.81;98866.97;4951421;28;20226;-57
2022/09/18 04:29:02;;;;;;;4.53;1.43;;;;;;;9.90;85.56;98863.00;4947804;28;20265;-57
2022/09/18 04:31:30;;;;;;;9.33;1.57;;;;;;;9.87;86.41;98861.47;4950126;28;20736;-57
2022/09/18 04:34:01;;;;;;;6.87;1.40;;;;;;;9.90;85.60;98866.41;4947011;28;20340;-58
2022/09/18 04:36:28;;;;;;;5.00;1.43;;;;;;;9.88;85.49;98863.09;4965822;28;20277;-58
2022/09/18 04:38:55;;;;;;;6.00;1.30;;;;;;;9.85;85.34;98868.59;4948229;28;20237;-57
2022/09/18 04:41:21;;;;;;;5.03;1.37;;;;;;;9.86;85.50;98865.03;4951681;28;20219;-56
2022/09/18 04:43:48;;;;;;;6.67;1.60;;;;;;;9.90;86.98;98871.63;4944858;28;20233;-58
2022/09/18 04:46:17;;;;;;;3.97;1.13;;;;;;;9.88;84.31;98872.72;4954025;28;20222;-58
2022/09/18 04:48:47;;;;;;;5.90;1.10;;;;;;;9.87;86.20;98871.91;4944437;28;20698;-58
2022/09/18 04:51:15;;;;;;;3.63;2.20;;;;;;;9.89;85.36;98869.97;4947688;28;20225;-60
2022/09/18 04:53:47;;;;;;;3.03;1.00;;;;;;;9.92;86.14;98865.44;4943788;28;20226;-58
2022/09/18 04:56:14;;;;;;;5.43;1.33;;;;;;;9.93;85.43;98867.09;4962757;28;20225;-58
2022/09/18 04:58:45;;;;;;;5.23;1.20;;;;;;;9.93;85.79;98873.13;4946006;28;20308;-58
2022/09/18 05:01:12;;;;;;;3.33;1.30;;;;;;;9.89;84.44;98869.97;4939862;28;20242;-58
2022/09/18 05:03:42;;;;;;;5.80;1.40;;;;;;;9.88;84.65;98863.09;4945771;28;20923;-58
2022/09/18 05:06:15;;;;;;;5.17;1.33;;;;;;;9.92;85.83;98870.66;4949597;28;20237;-58
2022/09/18 05:08:42;;;;;;;11.70;4.50;;;;;;;9.93;84.56;98869.69;4960738;28;20696;-58
2022/09/18 05:11:08;;;;;;;4.30;1.23;;;;;;;9.95;85.50;98872.97;4949482;28;20653;-58
2022/09/18 05:13:38;;;;;;;6.93;1.10;;;;;;;9.95;85.07;98873.81;4945721;28;21004;-58
2022/09/18 05:16:11;;;;;;;8.13;1.37;;;;;;;9.94;83.69;98876.56;4937963;28;20328;-59
2022/09/18 05:18:42;;;;;;;8.30;1.40;;;;;;;9.95;84.70;98878.19;4946497;28;20218;-58
2022/09/18 05:21:09;;;;;;;6.27;1.23;;;;;;;9.92;83.95;98887.13;4949513;28;20222;-59
2022/09/18 05:23:36;;;;;;;9.87;1.30;;;;;;;9.95;84.10;98880.81;4944498;28;20257;-58
2022/09/18 05:26:04;;;;;;;5.00;1.20;;;;;;;9.95;85.44;98886.03;4948536;28;20624;-57
2022/09/18 05:28:31;;;;;;;3.43;1.10;;;;;;;9.97;83.82;98884.09;4937093;28;20225;-58
2022/09/18 05:30:59;;;;;;;3.13;1.07;;;;;;;10.01;82.83;98877.63;4946598;28;20237;-58
2022/09/18 05:33:32;;;;;;;5.67;0.90;;;;;;;10.06;83.63;98888.47;4949862;28;20218;-58
2022/09/18 05:36:00;;;;;;;6.90;1.00;;;;;;;9.97;82.58;98884.09;4945763;28;20706;-59
2022/09/18 05:38:27;;;;;;;9.47;1.30;;;;;;;10.01;83.37;98888.91;4963864;28;20272;-59
2022/09/18 05:40:54;;;;;;;4.47;1.30;;;;;;;10.01;85.15;98888.06;4944875;28;20240;-58
2022/09/18 05:43:22;;;;;;;4.40;0.83;;;;;;;9.98;81.91;98885.75;4948704;28;20253;-58
2022/09/18 05:45:49;;;;;;;5.97;1.10;;;;;;;10.03;82.52;98889.59;4946028;28;20319;-59
2022/09/18 05:48:22;;;;;;;2.40;1.03;;;;;;;9.98;83.02;98894.41;4949014;28;20225;-58
2022/09/18 05:50:50;;;;;;;4.37;0.90;;;;;;;10.00;82.61;98896.84;4933618;28;20376;-58
2022/09/18 05:53:21;;;;;;;4.07;1.00;;;;;;;10.02;83.83;98897.53;4947431;28;20657;-57
2022/09/18 05:56:05;;;;;;;3.97;1.13;;;;;;;10.01;82.89;98894.13;4952055;28;20229;-58
2022/09/18 05:58:32;;;;;;;4.43;1.20;;;;;;;10.06;84.88;98893.69;4964508;28;20787;-59
2022/09/18 06:01:00;;;;;;;6.20;1.20;;;;;;;10.06;83.08;98898.09;4943496;28;20240;-58
2022/09/18 06:03:37;;;;;;;6.33;1.23;;;;;;;10.06;81.62;98898.09;4944739;28;20231;-58
2022/09/18 06:06:04;;;;;;;6.73;1.13;;;;;;;10.04;82.40;98899.06;4949706;28;20226;-58
2022/09/18 06:08:32;;;;;;;6.10;1.50;;;;;;;10.07;82.84;98899.75;4949486;28;20219;-58
2022/09/18 06:11:00;;;;;;;2.73;1.23;;;;;;;10.12;81.90;98900.09;4950356;28;20241;-58
2022/09/18 06:13:31;;;;;;;6.93;1.57;;;;;;;10.12;82.74;98897.50;4946440;28;20239;-59
2022/09/18 06:15:58;;;;;;;4.17;1.67;;;;;;;10.14;83.73;98893.81;4945576;28;20240;-59
2022/09/18 06:18:33;;;;;;;3.57;1.20;;;;;;;10.13;82.93;98906.97;4944521;28;20221;-59
2022/09/18 06:21:02;;;;;;;5.40;1.40;;;;;;;10.13;83.53;98904.38;4947330;28;20231;-59
2022/09/18 06:23:31;;;;;;;3.57;1.40;;;;;;;10.16;83.48;98917.13;4962641;28;20249;-58
2022/09/18 06:26:12;;;;;;;5.57;1.43;;;;;;;10.24;84.26;98911.22;4945970;28;20257;-58
2022/09/18 06:28:40;;;;;;;3.67;1.30;;;;;;;10.26;80.95;98909.28;4947108;28;20255;-59
2022/09/18 06:31:07;;;;;;;8.80;1.80;;;;;;;10.17;81.59;98911.78;4948371;28;20237;-58
2022/09/18 06:33:47;;;;;;;10.93;1.70;;;;;;;10.14;83.04;98919.06;4945590;28;20321;-59
2022/09/18 06:36:15;;;;;;;7.20;1.33;;;;;;;10.12;83.31;98921.81;4948675;28;20218;-58
2022/09/18 06:38:57;;;;;;;3.17;1.10;;;;;;;10.12;82.35;98916.59;4967009;28;20752;-58
2022/09/18 06:41:24;;;;;;;5.30;1.13;;;;;;;10.15;82.03;98910.25;4952608;28;20349;-57
2022/09/18 06:43:53;;;;;;;4.10;1.20;;;;;;;10.16;81.91;98909.28;4949051;28;20709;-59
2022/09/18 06:46:39;;;;;;;3.40;1.10;;;;;;;10.18;82.13;98915.19;4952795;28;20709;-58
2022/09/18 06:49:16;;;;;;;4.57;1.03;;;;;;;10.23;81.93;98918.22;4949940;28;20231;-58
2022/09/18 06:51:47;;;;;;;4.60;1.30;;;;;;;10.23;81.60;98914.78;4947966;28;20215;-58
2022/09/18 06:54:17;;;;;;;4.20;1.33;;;;;;;10.24;82.85;98912.03;4951639;28;20560;-59
2022/09/18 06:56:46;;;;;;;6.17;1.40;;;;;;;10.21;81.27;98921.94;4963532;28;20316;-58
2022/09/18 06:59:16;;;;;;;4.53;1.43;;;;;;;10.23;79.75;98917.41;4960920;28;20744;-58
2022/09/18 07:01:43;;;;;;;5.80;1.10;;;;;;;10.25;82.51;98920.69;4939503;28;20277;-58
2022/09/18 07:04:30;;;;;;;6.53;1.27;;;;;;;10.23;80.99;98913.00;4951237;28;20228;-58
2022/09/18 07:06:59;;;;;;;5.77;1.30;;;;;;;10.22;81.27;98916.56;4948100;28;20234;-58
2022/09/18 07:09:29;;;;;;;3.77;1.40;;;;;;;10.23;81.10;98928.63;4951151;28;20230;-58
2022/09/18 07:12:02;;;;;;;7.63;1.63;;;;;;;10.25;82.10;98925.91;4948934;28;20230;-58
2022/09/18 07:14:40;;;;;;;5.50;1.07;;;;;;;10.30;80.95;98923.69;4946543;28;20773;-58
2022/09/18 07:17:12;;;;;;;3.47;0.93;;;;;;;10.32;80.85;98925.19;4950646;28;20224;-58
2022/09/18 07:19:39;;;;;;;4.07;1.20;;;;;;;10.37;80.00;98931.78;4963954;28;20227;-58
2022/09/18 07:22:08;;;;;;;4.90;0.97;;;;;;;10.39;79.16;98935.94;4950500;28;20321;-58
2022/09/18 07:24:44;;;;;;;4.77;1.00;;;;;;;10.43;78.99;98926.84;4948342;28;20290;-58
2022/09/18 07:27:11;;;;;;;5.73;1.33;;;;;;;10.37;79.25;98932.59;4952271;28;20219;-59
2022/09/18 07:29:40;;;;;;;3.50;1.10;;;;;;;10.44;78.81;98925.88;4964154;28;20645;-58
2022/09/18 07:32:08;;;;;;;9.27;1.07;;;;;;;10.59;78.50;98918.41;4951785;28;20302;-58
2022/09/18 07:34:35;;;;;;;5.90;1.20;;;;;;;10.76;78.32;98929.84;4948313;28;20233;-58
2022/09/18 07:37:02;;;;;;;4.23;1.00;;;;;;;10.79;79.24;98931.38;4948017;28;20235;-57
2022/09/18 07:39:31;;;;;;;6.87;1.00;;;;;;;10.74;77.94;98925.75;4954142;28;20246;-59
2022/09/18 07:42:18;;;;;;;7.53;1.50;;;;;;;10.68;78.81;98927.16;4963854;28;20309;-58
2022/09/18 07:44:50;;;;;;;14.57;3.27;;;;;;;10.86;76.53;98934.22;4964523;28;20723;-59
2022/09/18 07:47:17;;;;;;;5.17;1.73;;;;;;;10.82;78.47;98933.69;4950741;28;20709;-59
2022/09/18 07:49:44;;;;;;;4.30;1.40;;;;;;;10.85;77.91;98932.56;4945957;28;20215;-58
2022/09/18 07:52:12;;;;;;;4.50;1.23;;;;;;;11.07;78.63;98939.22;4949697;28;20278;-58
2022/09/18 07:54:45;;;;;;;3.90;1.33;;;;;;;11.00;77.17;98927.72;4939605;28;20662;-58
2022/09/18 07:57:29;;;;;;;6.57;1.20;;;;;;;11.00;76.32;98927.72;4967249;28;20725;-58
2022/09/18 08:00:10;;;;;;;7.87;1.80;;;;;;;11.24;77.03;98929.75;4948065;28;20263;-58
2022/09/18 08:02:43;;;;;;;6.53;1.67;;;;;;;11.24;76.83;98932.38;4963517;28;20586;-58
2022/09/18 08:05:16;;;;;;;6.47;1.40;;;;;;;11.37;75.50;98937.22;4950266;28;20255;-58
2022/09/18 08:07:49;;;;;;;3.17;0.90;;;;;;;11.48;75.31;98936.19;4946032;28;20234;-58
2022/09/18 08:10:31;;;;;;;5.23;1.20;;;;;;;11.63;75.29;98939.09;4944151;28;20219;-58
2022/09/18 08:13:14;;;;;;;9.57;1.50;;;;;;;11.80;75.24;98943.50;4947697;28;20235;-58
2022/09/18 08:16:03;;;;;;;9.93;1.20;;;;;;;11.69;73.47;98950.75;4963250;28;20950;-57
2022/09/18 08:18:52;;;;;;;7.17;1.37;;;;;;;11.70;74.55;98948.00;4938320;28;21994;-59
2022/09/18 08:21:34;;;;;;;5.03;1.20;;;;;;;11.81;72.83;98949.53;4948229;28;20635;-58
2022/09/18 08:24:03;;;;;;;2.93;1.10;;;;;;;11.76;73.65;98951.78;4950287;28;20255;-59
2022/09/18 08:26:34;;;;;;;4.30;1.50;;;;;;;11.95;75.41;98951.63;4966144;28;20215;-58
2022/09/18 08:29:02;;;;;;;6.03;1.07;;;;;;;12.06;73.57;98955.84;4963327;28;20223;-58
2022/09/18 08:31:30;;;;;;;3.87;1.00;;;;;;;12.13;72.54;98958.66;4941324;28;20701;-58
2022/09/18 08:33:57;;;;;;;4.60;1.27;;;;;;;12.19;70.94;98952.81;4947472;28;20246;-59
2022/09/18 08:36:25;;;;;;;7.50;1.40;;;;;;;12.51;71.79;98956.63;4950399;28;20229;-57
2022/09/18 08:39:19;;;;;;;4.70;1.13;;;;;;;12.55;70.20;98944.84;4946146;28;20304;-58
2022/09/18 08:42:16;;;;;;;7.03;1.60;;;;;;;12.42;70.90;98952.31;4962879;28;20599;-58
2022/09/18 08:44:48;;;;;;;5.77;1.90;;;;;;;12.41;70.59;98940.19;4947261;28;20228;-59
2022/09/18 08:47:22;;;;;;;5.03;1.30;;;;;;;12.24;70.23;98947.94;4950112;28;20233;-59
2022/09/18 08:49:57;;;;;;;5.13;1.57;;;;;;;12.27;71.23;98959.06;4946990;28;20307;-59
2022/09/18 08:52:27;;;;;;;5.00;2.47;;;;;;;12.31;71.84;98960.41;4966935;28;20231;-59
2022/09/18 08:55:18;;;;;;;3.63;1.40;;;;;;;12.58;69.37;98954.19;4946675;28;20696;-58
2022/09/18 08:58:08;;;;;;;5.13;1.70;;;;;;;12.83;68.24;98949.06;4929981;28;20251;-58
2022/09/18 09:00:44;;;;;;;9.10;1.20;;;;;;;13.08;67.58;98955.22;4945556;28;20747;-58
2022/09/18 09:03:44;;;;;;;5.80;1.57;;;;;;;13.34;69.37;98951.69;4948389;28;20313;-59
2022/09/18 09:06:22;;;;;;;7.93;2.10;;;;;;;13.41;67.72;98944.84;4946459;28;20269;-59
2022/09/18 09:09:15;;;;;;;3.50;1.40;;;;;;;13.87;68.39;98946.19;4944776;28;20221;-58
2022/09/18 09:11:50;;;;;;;3.00;1.20;;;;;;;14.13;68.22;98946.03;4944320;28;20253;-59
2022/09/18 09:14:44;;;;;;;6.53;1.63;;;;;;;14.26;66.64;98948.13;4945719;28;20799;-59
2022/09/18 09:17:17;;;;;;;6.30;1.87;;;;;;;14.63;66.04;98945.09;4954862;28;20229;-58
2022/09/18 09:19:53;;;;;;;6.50;1.70;;;;;;;15.04;62.53;98939.69;4941743;28;20398;-58
2022/09/18 09:22:29;;;;;;;2.83;0.97;;;;;;;14.72;61.94;98941.47;4943004;28;20229;-58
2022/09/18 09:25:10;;;;;;;4.37;1.40;;;;;;;14.52;63.26;98938.38;4958444;28;20233;-59
2022/09/18 09:28:02;;;;;;;5.40;1.27;;;;;;;13.94;65.34;98930.59;4944916;28;20601;-58
2022/09/18 09:31:05;;;;;;;6.20;1.50;;;;;;;13.51;66.83;98928.16;4946451;28;20637;-59
2022/09/18 09:33:55;;;;;;;3.70;1.00;;;;;;;13.73;66.20;98943.25;4960792;28;20273;-57
2022/09/18 09:36:41;;;;;;;6.27;1.07;;;;;;;14.25;64.95;98948.31;4945179;28;20224;-59
2022/09/18 09:39:16;;;;;;;10.90;1.50;;;;;;;14.72;63.03;98946.72;4945349;28;20232;-60
2022/09/18 09:41:49;;;;;;;3.90;1.10;;;;;;;14.74;62.90;98937.69;4944588;28;20233;-59
2022/09/18 09:44:30;;;;;;;5.40;1.43;;;;;;;14.91;61.16;98943.69;4947443;28;20308;-58
2022/09/18 09:47:16;;;;;;;5.80;1.20;;;;;;;14.30;63.06;98938.94;4960528;28;20233;-58
2022/09/18 09:49:56;;;;;;;4.33;1.27;;;;;;;13.88;64.92;98938.16;4934503;28;20237;-57
2022/09/18 09:52:26;;;;;;;4.43;1.70;;;;;;;13.84;64.59;98941.25;4953210;28;20226;-58
2022/09/18 09:55:01;;;;;;;3.97;1.37;;;;;;;14.06;64.21;98928.47;4924117;28;20247;-58
2022/09/18 09:57:37;;;;;;;6.80;1.80;;;;;;;14.22;65.20;98933.69;4950392;28;20280;-58
2022/09/18 10:00:10;;;;;;;2.87;1.30;;;;;;;14.25;65.16;98935.19;4946566;28;20693;-57
2022/09/18 10:03:15;;;;;;;8.07;1.70;;;;;;;13.32;66.77;98935.28;4944064;28;20226;-57
2022/09/18 10:05:50;;;;;;;5.27;1.20;;;;;;;13.34;67.88;98933.34;4944742;28;20237;-58
2022/09/18 10:08:23;;;;;;;5.43;1.40;;;;;;;13.18;67.65;98928.06;4947113;28;20244;-58
2022/09/18 10:10:55;;;;;;;5.40;1.13;;;;;;;12.98;68.33;98923.06;4948665;28;20233;-57
2022/09/18 10:13:27;;;;;;;5.63;1.33;;;;;;;13.13;67.85;98923.31;4951471;28;20315;-58
2022/09/18 10:16:16;;;;;;;4.60;1.23;;;;;;;12.99;69.18;98922.09;4965791;28;20227;-58
2022/09/18 10:18:47;;;;;;;6.47;1.20;;;;;;;13.04;67.71;98929.50;4938218;28;20718;-57
2022/09/18 10:21:17;;;;;;;4.63;1.37;;;;;;;13.09;69.15;98922.78;4951722;28;20225;-58
2022/09/18 10:23:50;;;;;;;6.30;1.57;;;;;;;12.98;69.29;98921.28;4934182;28;20585;-58
2022/09/18 10:26:22;;;;;;;10.20;1.40;;;;;;;13.09;69.58;98907.06;4952964;28;20243;-58
2022/09/18 10:28:49;;;;;;;5.77;1.37;;;;;;;13.32;69.09;98911.69;4949439;28;20283;-57
2022/09/18 10:31:17;;;;;;;3.17;1.20;;;;;;;13.50;66.72;98908.16;4954024;28;20252;-58
2022/09/18 10:33:51;;;;;;;6.10;1.17;;;;;;;13.50;68.36;98913.41;4953832;28;20669;-57
2022/09/18 10:36:31;;;;;;;5.00;1.30;;;;;;;13.33;68.14;98905.47;4942087;28;20241;-58
2022/09/18 10:39:15;;;;;;;3.70;1.10;;;;;;;13.36;67.53;98910.41;4948049;28;20248;-58
2022/09/18 10:41:43;;;;;;;3.93;1.03;;;;;;;13.70;64.83;98903.38;4948121;28;20705;-57
2022/09/18 10:44:22;;;;;;;7.47;1.30;;;;;;;14.15;63.96;98914.34;4949783;28;20360;-58
2022/09/18 10:46:57;;;;;;;5.47;2.17;;;;;;;13.95;63.66;98906.81;4938447;28;21906;-58
2022/09/18 10:49:30;;;;;;;4.70;1.50;;;;;;;13.94;63.10;98893.88;4950428;28;20722;-59
2022/09/18 10:52:30;;;;;;;6.27;1.10;;;;;;;13.55;62.95;98890.94;4940191;28;20328;-58
2022/09/18 10:55:12;;;;;;;5.30;1.00;;;;;;;13.65;63.69;98896.03;4954429;28;20247;-58
2022/09/18 10:57:44;;;;;;;5.00;1.30;;;;;;;14.16;62.97;98890.56;4962271;28;20220;-58
2022/09/18 11:00:33;;;;;;;3.33;1.00;;;;;;;14.32;63.12;98900.19;4941841;28;20283;-59
2022/09/18 11:03:19;;;;;;;4.73;1.20;;;;;;;14.56;59.49;98893.22;4948130;28;20245;-59
2022/09/18 11:05:53;;;;;;;5.37;0.87;;;;;;;14.25;58.41;98886.09;4948056;28;20217;-58
2022/09/18 11:08:26;;;;;;;3.17;0.80;;;;;;;14.78;55.91;98897.91;4951738;28;20246;-59
2022/09/18 11:11:02;;;;;;;3.07;1.07;;;;;;;15.06;54.18;98882.50;4948375;28;20245;-57
2022/09/18 11:13:32;;;;;;;3.40;0.80;;;;;;;14.70;51.65;98904.03;4954802;28;20231;-58
2022/09/18 11:16:02;;;;;;;1.00;0.40;;;;;;;14.67;49.46;98897.28;4949488;28;20229;-58
2022/09/18 11:18:31;;;;;;;3.53;0.77;;;;;;;14.65;51.33;98895.81;4950386;28;20272;-58
2022/09/18 11:21:02;;;;;;;3.13;0.70;;;;;;;14.61;51.90;98892.69;4947303;28;20229;-59
2022/09/18 11:23:32;;;;;;;4.43;0.70;;;;;;;14.69;51.97;98892.69;4951707;28;20225;-59
2022/09/18 11:26:18;;;;;;;3.23;0.67;;;;;;;14.38;52.11;98900.50;4947996;28;20230;-59
2022/09/18 11:29:01;;;;;;;5.80;0.80;;;;;;;14.47;51.97;98902.94;4939539;28;20224;-58
2022/09/18 11:31:40;;;;;;;1.73;0.70;;;;;;;14.53;52.59;98900.59;4950560;28;20229;-58
2022/09/18 11:34:22;;;;;;;3.93;0.80;;;;;;;14.69;52.37;98899.75;4934139;28;20250;-58
2022/09/18 11:36:53;;;;;;;4.37;0.90;;;;;;;14.36;51.31;98889.34;4915720;28;20222;-60
2022/09/18 11:39:29;;;;;;;3.83;0.70;;;;;;;14.46;52.24;98903.09;4962630;28;20226;-59
2022/09/18 11:42:08;;;;;;;5.37;0.80;;;;;;;14.75;52.27;98888.59;4913066;28;20271;-61
2022/09/18 11:44:37;;;;;;;1.10;0.60;;;;;;;14.92;52.21;98891.94;4944138;28;20221;-59
2022/09/18 11:47:32;;;;;;;2.83;0.70;;;;;;;14.85;50.61;98873.41;4919377;28;20254;-59
2022/09/18 11:50:14;;;;;;;4.63;0.70;;;;;;;15.43;48.76;98869.56;4883770;29;20229;-59
2022/09/18 11:52:52;;;;;;;1.83;0.80;;;;;;;15.16;51.65;98872.56;4922404;28;20307;-59
2022/09/18 11:55:34;;;;;;;3.90;0.90;;;;;;;15.55;51.37;98865.53;4910682;28;20227;-59
2022/09/18 11:58:11;;;;;;;1.03;0.60;;;;;;;15.04;50.83;98866.06;4939230;28;20222;-60
2022/09/18 12:00:49;;;;;;;2.57;0.70;;;;;;;15.27;51.26;98862.63;4883722;28;20234;-59
2022/09/18 12:03:24;;;;;;;3.40;0.80;;;;;;;15.23;51.10;98856.09;4931320;28;20301;-59
2022/09/18 12:05:58;;;;;;;2.40;0.97;;;;;;;15.25;51.41;98856.75;4931743;28;20238;-59
2022/09/18 12:08:47;;;;;;;3.20;0.87;;;;;;;15.08;50.89;98877.88;4899489;28;20221;-59
2022/09/18 12:11:27;;;;;;;3.07;0.70;;;;;;;14.57;50.94;98852.00;4935816;28;20226;-60